Time;durP1;ratioP1;P1;durP2;ratioP2;P2;SDS_P1;SDS_P2;PMS_P1;PMS_P2;Temp;Humidity;BMP_temperature;BMP_pressure;BME280_temperature;BME280_humidity;BME280_pressure;Samples;Min_cycle;Max_cycle;Signal;HPM_P1;HPM_P2
2023/11/10 00:02:01;;;;;;;;;;;;;;;17.41;51.54;101469.22;5090942;28;1188;-44
2023/11/10 00:04:27;;;;;;;;;;;;;;;16.73;52.77;101464.97;5084772;28;1118;-46
2023/11/10 00:06:53;;;;;;;;;;;;;;;16.45;53.33;101459.69;5083103;28;899;-42
2023/11/10 00:09:18;;;;;;;;;;;;;;;16.18;53.58;101458.53;5084074;28;1038;-45
2023/11/10 00:11:44;;;;;;;;;;;;;;;16.20;53.66;101459.13;5098570;28;1969;-45
2023/11/10 00:14:10;;;;;;;;;;;;;;;17.16;51.86;101450.59;5079683;28;2278;-43
2023/11/10 00:16:36;;;;;;;;;;;;;;;16.51;53.15;101447.66;5077840;28;1081;-46
2023/11/10 00:19:03;;;;;;;;;;;;;;;16.20;53.49;101450.03;5091404;28;1258;-42
2023/11/10 00:21:29;;;;;;;;;;;;;;;17.31;51.29;101441.66;5078171;28;1097;-44
2023/11/10 00:23:54;;;;;;;;;;;;;;;16.74;52.81;101455.63;5091459;28;1070;-44
2023/11/10 00:26:23;;;;;;;;;;;;;;;16.37;53.47;101456.31;5090842;28;1054;-44
2023/11/10 00:28:50;;;;;;;;;;;;;;;16.17;53.55;101447.81;5098060;28;1093;-45
2023/11/10 00:31:18;;;;;;;;;;;;;;;16.01;53.46;101441.31;5076726;28;1914;-42
2023/11/10 00:33:44;;;;;;;;;;;;;;;16.07;53.87;101440.28;5080855;28;995;-40
2023/11/10 00:36:10;;;;;;;;;;;;;;;17.34;51.21;101428.19;5084465;28;1114;-41
2023/11/10 00:38:35;;;;;;;;;;;;;;;16.50;53.08;101429.56;5091089;28;1004;-40
2023/11/10 00:41:01;;;;;;;;;;;;;;;16.24;53.61;101415.53;5091001;28;1090;-48
2023/11/10 00:43:26;;;;;;;;;;;;;;;16.92;52.59;101420.69;5088736;28;1097;-42
2023/11/10 00:45:54;;;;;;;;;;;;;;;16.99;52.00;101415.81;5090035;28;2515;-43
2023/11/10 00:48:19;;;;;;;;;;;;;;;16.46;53.28;101414.69;5097539;28;1117;-42
2023/11/10 00:50:45;;;;;;;;;;;;;;;16.20;53.20;101408.88;5066501;28;1909;-41
2023/11/10 00:53:10;;;;;;;;;;;;;;;16.08;53.33;101409.84;5096862;28;1135;-44
2023/11/10 00:55:36;;;;;;;;;;;;;;;16.64;52.92;101408.84;5079421;28;933;-46
2023/11/10 00:58:02;;;;;;;;;;;;;;;17.33;51.18;101404.53;5078962;28;1007;-44
2023/11/10 01:00:28;;;;;;;;;;;;;;;16.57;52.95;101414.53;5097525;28;1194;-42
2023/11/10 01:02:54;;;;;;;;;;;;;;;16.28;53.34;101415.84;5065814;28;1134;-45
2023/11/10 01:05:21;;;;;;;;;;;;;;;16.53;53.46;101418.06;5084120;28;1091;-47
2023/11/10 01:07:47;;;;;;;;;;;;;;;17.36;51.20;101423.28;5085544;28;847;-49
2023/11/10 01:10:13;;;;;;;;;;;;;;;16.71;52.64;101428.69;5096956;28;1105;-41
2023/11/10 01:12:39;;;;;;;;;;;;;;;16.36;53.15;101429.94;5076276;28;1976;-43
2023/11/10 01:15:05;;;;;;;;;;;;;;;16.19;53.13;101435.50;5077458;28;1792;-46
2023/11/10 01:17:31;;;;;;;;;;;;;;;16.46;53.32;101425.66;5097167;28;1018;-47
2023/11/10 01:19:58;;;;;;;;;;;;;;;17.12;51.52;101428.28;5078221;28;981;-45
2023/11/10 01:22:26;;;;;;;;;;;;;;;16.49;53.06;101422.41;5096849;28;1154;-46
2023/11/10 01:24:51;;;;;;;;;;;;;;;16.79;52.71;101408.19;5081824;28;1089;-45
2023/11/10 01:27:18;;;;;;;;;;;;;;;16.93;52.15;101405.88;5078747;28;1106;-44
2023/11/10 01:29:45;;;;;;;;;;;;;;;16.46;53.08;101390.81;5081866;28;1086;-43
2023/11/10 01:32:14;;;;;;;;;;;;;;;16.28;53.28;101391.16;5080612;28;1901;-45
2023/11/10 01:34:39;;;;;;;;;;;;;;;16.25;53.27;101393.31;5097508;28;1138;-47
2023/11/10 01:37:06;;;;;;;;;;;;;;;17.47;50.87;101387.59;5066513;28;1205;-43
2023/11/10 01:39:32;;;;;;;;;;;;;;;16.64;52.62;101389.63;5077711;28;1297;-47
2023/11/10 01:41:57;;;;;;;;;;;;;;;16.40;53.12;101389.91;5077529;28;1130;-46
2023/11/10 01:44:23;;;;;;;;;;;;;;;16.41;53.43;101385.25;5086638;28;2234;-46
2023/11/10 01:46:49;;;;;;;;;;;;;;;17.23;51.30;101379.75;5088861;28;1138;-43
2023/11/10 01:49:18;;;;;;;;;;;;;;;16.55;52.65;101388.41;5059878;28;1101;-43
2023/11/10 01:51:44;;;;;;;;;;;;;;;16.31;52.98;101387.88;5088122;28;1906;-47
2023/11/10 01:54:11;;;;;;;;;;;;;;;16.10;53.00;101384.88;5043085;28;1300;-48
2023/11/10 01:56:36;;;;;;;;;;;;;;;16.36;53.15;101397.00;5054692;28;1099;-47
2023/11/10 01:59:03;;;;;;;;;;;;;;;16.99;51.81;101393.00;5068366;28;1607;-46
2023/11/10 02:01:29;;;;;;;;;;;;;;;16.43;52.86;101397.63;5055180;28;1496;-43
2023/11/10 02:03:54;;;;;;;;;;;;;;;16.14;53.29;101393.44;5040556;28;1129;-47
2023/11/10 02:06:21;;;;;;;;;;;;;;;16.11;53.54;101389.31;5069482;28;1137;-40
2023/11/10 02:08:46;;;;;;;;;;;;;;;17.13;51.58;101396.16;5060520;28;1142;-47
2023/11/10 02:11:12;;;;;;;;;;;;;;;16.39;53.02;101391.00;5064105;28;1901;-45
2023/11/10 02:13:38;;;;;;;;;;;;;;;16.20;53.06;101389.66;5073246;28;1816;-44
2023/11/10 02:16:03;;;;;;;;;;;;;;;15.99;53.25;101394.94;5063961;28;1386;-47
2023/11/10 02:18:29;;;;;;;;;;;;;;;16.12;53.66;101385.47;5074205;28;1207;-48
2023/11/10 02:20:55;;;;;;;;;;;;;;;17.23;51.42;101391.53;5075620;28;1030;-46
2023/11/10 02:23:21;;;;;;;;;;;;;;;16.50;52.72;101393.88;5072020;28;1098;-43
2023/11/10 02:25:52;;;;;;;;;;;;;;;16.20;53.38;101389.66;5046287;28;1159;-45
2023/11/10 02:28:18;;;;;;;;;;;;;;;16.31;53.32;101391.44;5062110;28;1030;-44
2023/11/10 02:30:44;;;;;;;;;;;;;;;17.26;51.20;101388.28;5071060;28;1905;-46
2023/11/10 02:33:09;;;;;;;;;;;;;;;16.53;52.53;101379.63;5069875;28;1011;-46
2023/11/10 02:35:35;;;;;;;;;;;;;;;16.16;53.09;101374.81;5074623;28;1090;-43
2023/11/10 02:38:00;;;;;;;;;;;;;;;16.05;53.19;101371.94;5062172;28;1081;-43
2023/11/10 02:40:26;;;;;;;;;;;;;;;17.36;51.07;101371.06;5071570;28;1070;-46
2023/11/10 02:42:51;;;;;;;;;;;;;;;16.73;52.21;101373.50;5064049;28;1030;-45
2023/11/10 02:45:17;;;;;;;;;;;;;;;16.39;53.08;101373.72;5055766;28;2168;-45
2023/11/10 02:47:43;;;;;;;;;;;;;;;17.11;51.52;101377.19;5055592;28;1142;-48
2023/11/10 02:50:09;;;;;;;;;;;;;;;16.87;51.63;101362.91;5055650;28;1014;-44
2023/11/10 02:52:34;;;;;;;;;;;;;;;16.38;52.99;101366.56;5069197;28;1926;-42
2023/11/10 02:55:00;;;;;;;;;;;;;;;16.22;52.93;101360.09;5080177;28;1078;-46
2023/11/10 02:57:26;;;;;;;;;;;;;;;16.08;52.84;101357.72;5076699;28;1066;-42
2023/11/10 02:59:51;;;;;;;;;;;;;;;17.08;51.67;101367.53;5086361;28;983;-46
2023/11/10 03:02:17;;;;;;;;;;;;;;;16.85;52.06;101359.63;5082144;28;1134;-44
2023/11/10 03:04:43;;;;;;;;;;;;;;;16.41;52.79;101360.53;5087546;28;1006;-42
2023/11/10 03:07:10;;;;;;;;;;;;;;;16.15;53.21;101362.19;5086485;28;1173;-49
2023/11/10 03:09:36;;;;;;;;;;;;;;;16.05;53.29;101365.66;5086854;28;1035;-49
2023/11/10 03:12:01;;;;;;;;;;;;;;;17.33;51.12;101368.81;5077075;28;1909;-43
2023/11/10 03:14:27;;;;;;;;;;;;;;;16.60;52.49;101372.00;5087906;28;2201;-44
2023/11/10 03:16:52;;;;;;;;;;;;;;;16.29;52.98;101377.16;5089236;28;1105;-47
2023/11/10 03:19:18;;;;;;;;;;;;;;;16.07;53.09;101367.06;5062885;28;1032;-47
2023/11/10 03:21:44;;;;;;;;;;;;;;;16.76;52.37;101362.84;5081844;28;1074;-47
2023/11/10 03:24:09;;;;;;;;;;;;;;;17.05;51.22;101354.31;5087451;28;1090;-45
2023/11/10 03:26:35;;;;;;;;;;;;;;;16.46;52.66;101351.56;5075425;28;1050;-42
2023/11/10 03:29:02;;;;;;;;;;;;;;;16.18;53.22;101358.94;5083613;28;1189;-42
2023/11/10 03:31:29;;;;;;;;;;;;;;;17.33;50.89;101360.56;5068586;28;1897;-43
2023/11/10 03:33:55;;;;;;;;;;;;;;;16.68;52.24;101354.25;5087316;28;1105;-44
2023/11/10 03:36:21;;;;;;;;;;;;;;;16.36;52.73;101363.25;5058160;28;1123;-45
2023/11/10 03:38:46;;;;;;;;;;;;;;;16.09;52.76;101350.34;5060970;28;1096;-46
2023/11/10 03:41:13;;;;;;;;;;;;;;;17.13;51.50;101358.50;5088350;28;1682;-47
2023/11/10 03:43:38;;;;;;;;;;;;;;;16.82;51.90;101369.19;5079421;28;2235;-47
2023/11/10 03:46:04;;;;;;;;;;;;;;;16.39;52.63;101354.50;5086823;28;1137;-47
2023/11/10 03:48:29;;;;;;;;;;;;;;;16.14;52.83;101352.28;5097619;28;1113;-47
2023/11/10 03:50:55;;;;;;;;;;;;;;;16.88;51.85;101353.59;5078882;28;1897;-43
2023/11/10 03:53:21;;;;;;;;;;;;;;;17.06;51.32;101338.66;5079667;28;1510;-45
2023/11/10 03:55:47;;;;;;;;;;;;;;;16.43;52.39;101336.44;5090385;28;1010;-44
2023/11/10 03:58:13;;;;;;;;;;;;;;;16.16;52.70;101340.00;5078076;28;1089;-48
2023/11/10 04:00:38;;;;;;;;;;;;;;;16.13;52.93;101345.16;5088424;28;1359;-44
2023/11/10 04:03:04;;;;;;;;;;;;;;;17.36;50.79;101327.06;5081130;28;1087;-47
2023/11/10 04:05:30;;;;;;;;;;;;;;;16.71;52.12;101326.25;5089000;28;1022;-49
2023/11/10 04:07:55;;;;;;;;;;;;;;;16.31;53.05;101328.31;5087481;28;1311;-45
2023/11/10 04:10:21;;;;;;;;;;;;;;;16.11;53.09;101328.13;5087801;28;1317;-49
2023/11/10 04:12:47;;;;;;;;;;;;;;;16.68;52.28;101324.88;5085752;28;1976;-46
2023/11/10 04:15:13;;;;;;;;;;;;;;;17.26;50.89;101332.47;5092309;28;2639;-47
2023/11/10 04:17:39;;;;;;;;;;;;;;;16.54;52.45;101331.88;5085677;28;1121;-45
2023/11/10 04:20:05;;;;;;;;;;;;;;;16.22;52.90;101336.19;5089066;28;1034;-45
2023/11/10 04:22:31;;;;;;;;;;;;;;;16.08;52.83;101337.69;5084123;28;1292;-48
2023/11/10 04:24:56;;;;;;;;;;;;;;;16.13;53.03;101343.25;5098417;28;1105;-49
2023/11/10 04:27:22;;;;;;;;;;;;;;;17.42;50.46;101342.50;5093372;28;1121;-47
2023/11/10 04:29:48;;;;;;;;;;;;;;;16.56;52.12;101344.25;5091503;28;1279;-50
2023/11/10 04:32:13;;;;;;;;;;;;;;;16.21;52.86;101344.69;5086640;28;1980;-46
2023/11/10 04:34:39;;;;;;;;;;;;;;;16.82;52.00;101349.16;5097904;28;1054;-48
2023/11/10 04:37:06;;;;;;;;;;;;;;;16.99;51.34;101343.56;5098078;28;1089;-47
2023/11/10 04:39:34;;;;;;;;;;;;;;;16.45;52.56;101352.63;5097696;28;1029;-48
2023/11/10 04:42:01;;;;;;;;;;;;;;;16.23;52.88;101342.53;5097467;28;1066;-49
2023/11/10 04:44:27;;;;;;;;;;;;;;;16.06;52.85;101340.69;5088080;28;2214;-46
2023/11/10 04:46:52;;;;;;;;;;;;;;;16.69;52.28;101337.50;5088939;28;1073;-44
2023/11/10 04:49:18;;;;;;;;;;;;;;;16.99;51.58;101346.31;5079293;28;1205;-46
2023/11/10 04:51:44;;;;;;;;;;;;;;;16.40;52.62;101348.75;5097201;28;1978;-47
2023/11/10 04:54:11;;;;;;;;;;;;;;;16.16;53.01;101344.63;5093746;28;1387;-48
2023/11/10 04:56:45;;;;;;;;;;;;;;;16.19;53.26;101341.38;5089411;28;1422;-49
2023/11/10 04:59:12;;;;;;;;;;;;;;;17.29;50.92;101337.44;5092063;28;1152;-49
2023/11/10 05:01:39;;;;;;;;;;;;;;;16.54;52.64;101342.84;5089139;28;893;-51
2023/11/10 05:04:08;;;;;;;;;;;;;;;16.23;53.13;101337.06;5089210;28;1018;-50
2023/11/10 05:06:33;;;;;;;;;;;;;;;16.23;53.37;101342.53;5096286;28;1014;-49
2023/11/10 05:08:59;;;;;;;;;;;;;;;17.34;50.80;101340.22;5083127;28;1026;-50
2023/11/10 05:11:25;;;;;;;;;;;;;;;16.56;52.47;101349.75;5089712;28;1972;-53
2023/11/10 05:13:51;;;;;;;;;;;;;;;16.26;52.93;101342.00;5088390;28;2417;-49
2023/11/10 05:16:16;;;;;;;;;;;;;;;17.08;51.46;101337.31;5077131;28;925;-50
2023/11/10 05:18:42;;;;;;;;;;;;;;;16.74;52.20;101343.03;5077155;28;1034;-48
2023/11/10 05:21:09;;;;;;;;;;;;;;;16.40;52.88;101342.44;5076300;28;887;-48
2023/11/10 05:23:35;;;;;;;;;;;;;;;16.15;53.15;101346.56;5076457;28;1142;-49
2023/11/10 05:26:01;;;;;;;;;;;;;;;16.28;53.07;101337.09;5076385;28;1058;-48
2023/11/10 05:28:26;;;;;;;;;;;;;;;17.49;50.42;101333.16;5086881;28;1186;-50
2023/11/10 05:30:53;;;;;;;;;;;;;;;16.69;52.39;101353.97;5076714;28;1901;-47
2023/11/10 05:33:19;;;;;;;;;;;;;;;17.28;50.85;101349.56;5077804;28;1066;-49
2023/11/10 05:35:44;;;;;;;;;;;;;;;16.80;50.70;101343.09;5085574;28;1055;-50
2023/11/10 05:38:10;;;;;;;;;;;;;;;16.70;49.08;101358.38;5093711;28;1089;-47
2023/11/10 05:40:35;;;;;;;;;;;;;;;16.41;48.44;101355.06;5086233;28;1054;-47
2023/11/10 05:43:01;;;;;;;;;;;;;;;16.31;48.05;101349.47;5080597;28;1046;-49
2023/11/10 05:45:27;;;;;;;;;;;;;;;16.27;47.18;101362.03;5087586;28;2691;-47
2023/11/10 05:47:52;;;;;;;;;;;;;;;16.10;46.92;101354.72;5087677;28;1018;-47
2023/11/10 05:50:18;;;;;;;;;;;;;;;16.05;46.38;101352.75;5081777;28;1023;-48
2023/11/10 05:52:44;;;;;;;;;;;;;;;15.96;46.58;101359.75;5076112;28;1905;-46
2023/11/10 05:55:09;;;;;;;;;;;;;;;15.98;46.09;101352.13;5090450;28;1034;-49
2023/11/10 05:57:36;;;;;;;;;;;;;;;16.70;48.83;101360.28;5085411;28;895;-50
2023/11/10 06:00:03;;;;;;;;;;;;;;;16.25;48.41;101356.81;5095895;28;1066;-47
2023/11/10 06:02:35;;;;;;;;;;;;;;;16.10;47.55;101364.88;5095746;28;971;-49
2023/11/10 06:05:04;;;;;;;;;;;;;;;15.96;47.21;101362.50;5082536;28;1136;-48
2023/11/10 06:07:31;;;;;;;;;;;;;;;15.92;46.55;101353.13;5085549;28;1031;-45
2023/11/10 06:09:56;;;;;;;;;;;;;;;15.76;46.17;101354.00;5093430;28;1089;-50
2023/11/10 06:12:23;;;;;;;;;;;;;;;15.80;45.58;101350.50;5091499;28;1976;-49
2023/11/10 06:14:50;;;;;;;;;;;;;;;15.83;45.21;101357.41;5091637;28;2446;-50
2023/11/10 06:17:18;;;;;;;;;;;;;;;15.65;45.46;101359.31;5089191;28;1232;-50
2023/11/10 06:19:44;;;;;;;;;;;;;;;15.64;45.11;101363.16;5094333;28;1336;-49
2023/11/10 06:22:11;;;;;;;;;;;;;;;16.48;47.31;101363.09;5093709;28;1154;-47
2023/11/10 06:24:37;;;;;;;;;;;;;;;16.46;49.25;101357.88;5094341;28;1273;-48
2023/11/10 06:27:02;;;;;;;;;;;;;;;16.02;48.46;101361.50;5097685;28;1460;-49
2023/11/10 06:29:28;;;;;;;;;;;;;;;16.01;47.15;101357.09;5098783;28;1355;-48
2023/11/10 06:31:53;;;;;;;;;;;;;;;15.90;46.57;101358.03;5096273;28;1909;-47
2023/11/10 06:34:21;;;;;;;;;;;;;;;16.40;47.64;101348.75;5081930;28;1333;-51
2023/11/10 06:36:47;;;;;;;;;;;;;;;16.33;48.35;101341.81;5080270;28;1169;-46
2023/11/10 06:39:15;;;;;;;;;;;;;;;16.10;47.31;101348.41;5093433;28;1617;-47
2023/11/10 06:41:40;;;;;;;;;;;;;;;15.95;46.65;101347.16;5087514;28;1214;-46
2023/11/10 06:44:06;;;;;;;;;;;;;;;16.39;47.75;101346.25;5089849;28;2332;-47
2023/11/10 06:46:31;;;;;;;;;;;;;;;16.84;48.94;101352.47;5092802;28;1191;-50
2023/11/10 06:48:57;;;;;;;;;;;;;;;16.39;48.66;101340.78;5095258;28;1515;-48
2023/11/10 06:51:23;;;;;;;;;;;;;;;16.25;47.40;101329.38;5089018;28;1972;-51
2023/11/10 06:53:48;;;;;;;;;;;;;;;16.18;46.61;101332.31;5081799;28;1190;-48
2023/11/10 06:56:14;;;;;;;;;;;;;;;16.10;45.75;101337.44;5095486;28;1265;-50
2023/11/10 06:58:39;;;;;;;;;;;;;;;15.95;45.76;101336.19;5095617;28;983;-48
2023/11/10 07:01:06;;;;;;;;;;;;;;;16.24;46.70;101341.44;5081412;28;1174;-49
2023/11/10 07:03:32;;;;;;;;;;;;;;;16.34;47.78;101337.97;5091322;28;1305;-49
2023/11/10 07:05:58;;;;;;;;;;;;;;;16.06;46.96;101337.94;5097273;28;1321;-51
2023/11/10 07:08:25;;;;;;;;;;;;;;;16.00;46.31;101322.50;5102639;28;1188;-50
2023/11/10 07:10:57;;;;;;;;;;;;;;;16.07;46.06;101325.91;5083076;28;1985;-47
2023/11/10 07:13:23;;;;;;;;;;;;;;;15.91;45.48;101329.53;5087162;28;1420;-46
2023/11/10 07:15:49;;;;;;;;;;;;;;;15.83;45.38;101321.75;5088470;28;2659;-49
2023/11/10 07:18:16;;;;;;;;;;;;;;;15.79;45.08;101315.09;5085365;28;1018;-50
2023/11/10 07:20:44;;;;;;;;;;;;;;;15.75;44.91;101309.28;5078890;28;1986;-48
2023/11/10 07:23:10;;;;;;;;;;;;;;;15.72;44.76;101307.91;5098670;28;1086;-51
2023/11/10 07:25:35;;;;;;;;;;;;;;;15.64;44.70;101305.59;5099332;28;1042;-49
2023/11/10 07:28:02;;;;;;;;;;;;;;;15.58;44.67;101320.31;5098891;28;1149;-47
2023/11/10 07:30:28;;;;;;;;;;;;;;;15.54;44.68;101302.69;5085564;28;1395;-49
2023/11/10 07:32:54;;;;;;;;;;;;;;;15.54;44.67;101305.44;5084594;28;1964;-49
2023/11/10 07:35:20;;;;;;;;;;;;;;;15.46;44.54;101308.63;5098742;28;1010;-46
2023/11/10 07:37:46;;;;;;;;;;;;;;;15.47;44.39;101310.28;5087648;28;1018;-51
2023/11/10 07:40:13;;;;;;;;;;;;;;;15.43;44.44;101306.38;5090866;28;1043;-47
2023/11/10 07:42:45;;;;;;;;;;;;;;;15.33;44.57;101291.47;5093049;28;1145;-45
2023/11/10 07:45:17;;;;;;;;;;;;;;;15.36;44.50;101304.66;5082019;28;2345;-45
2023/11/10 07:47:46;;;;;;;;;;;;;;;15.34;44.45;101300.53;5091084;28;1365;-46
2023/11/10 07:50:13;;;;;;;;;;;;;;;15.29;44.62;101301.28;5085754;28;1297;-49
2023/11/10 07:52:39;;;;;;;;;;;;;;;15.25;44.70;101304.75;5092730;28;1891;-49
2023/11/10 07:55:05;;;;;;;;;;;;;;;15.26;44.59;101296.28;5090848;28;1280;-49
2023/11/10 07:57:32;;;;;;;;;;;;;;;15.26;44.65;101306.44;5090739;28;1103;-50
2023/11/10 08:00:06;;;;;;;;;;;;;;;15.21;44.54;101308.00;5083476;28;1126;-47
2023/11/10 08:02:37;;;;;;;;;;;;;;;15.09;44.78;101300.97;5092483;28;1448;-53
2023/11/10 08:05:03;;;;;;;;;;;;;;;15.15;44.65;101299.94;5101131;28;1272;-50
2023/11/10 08:07:29;;;;;;;;;;;;;;;15.14;44.65;101298.31;5093596;28;880;-49
2023/11/10 08:09:56;;;;;;;;;;;;;;;15.12;44.75;101311.41;5090320;28;1328;-49
2023/11/10 08:12:21;;;;;;;;;;;;;;;15.12;44.69;101305.94;5078276;28;1975;-51
2023/11/10 08:14:47;;;;;;;;;;;;;;;15.08;44.82;101305.59;5077886;28;1903;-49
2023/11/10 08:17:13;;;;;;;;;;;;;;;15.80;46.89;101309.38;5089450;28;1076;-51
2023/11/10 08:19:39;;;;;;;;;;;;;;;15.47;46.90;101302.06;5088444;28;2147;-51
2023/11/10 08:22:06;;;;;;;;;;;;;;;15.37;46.15;101310.97;5090485;28;1828;-50
2023/11/10 08:24:31;;;;;;;;;;;;;;;15.19;45.93;101301.13;5080362;28;2172;-47
2023/11/10 08:26:57;;;;;;;;;;;;;;;15.33;45.51;101307.06;5084469;28;1792;-51
2023/11/10 08:29:23;;;;;;;;;;;;;;;15.10;45.73;101303.47;5087163;28;2326;-50
2023/11/10 08:31:50;;;;;;;;;;;;;;;15.18;45.15;101297.56;5090051;28;2045;-51
2023/11/10 08:34:16;;;;;;;;;;;;;;;15.12;45.17;101290.31;5098139;28;1833;-49
2023/11/10 08:36:42;;;;;;;;;;;;;;;15.07;45.18;101295.75;5110042;28;1329;-49
2023/11/10 08:39:07;;;;;;;;;;;;;;;15.77;46.22;101284.34;5099474;28;1316;-50
2023/11/10 08:41:33;;;;;;;;;;;;;;;15.47;47.29;101280.13;5098157;28;1126;-50
2023/11/10 08:43:59;;;;;;;;;;;;;;;15.35;46.57;101272.84;5101249;28;1442;-51
2023/11/10 08:46:25;;;;;;;;;;;;;;;15.32;45.99;101262.41;5091697;28;1067;-53
2023/11/10 08:48:50;;;;;;;;;;;;;;;15.25;45.66;101259.03;5092984;28;1507;-48
2023/11/10 08:51:16;;;;;;;;;;;;;;;15.18;45.56;101267.44;5092401;28;1970;-49
2023/11/10 08:53:42;;;;;;;;;;;;;;;15.18;45.55;101258.34;5083743;28;1222;-44
2023/11/10 08:56:08;;;;;;;;;;;;;;;15.09;45.38;101260.69;5089518;28;1098;-46
2023/11/10 08:58:33;;;;;;;;;;;;;;;15.09;45.09;101248.94;5090682;28;1018;-46
2023/11/10 09:00:59;;;;;;;;;;;;;;;15.08;45.20;101244.53;5096705;28;1042;-49
2023/11/10 09:03:25;;;;;;;;;;;;;;;15.04;44.86;101233.25;5094317;28;2406;-50
2023/11/10 09:05:50;;;;;;;;;;;;;;;14.95;45.14;101234.75;5097266;28;1383;-46
2023/11/10 09:08:16;;;;;;;;;;;;;;;15.63;46.20;101238.13;5085575;28;1067;-47
2023/11/10 09:10:42;;;;;;;;;;;;;;;15.23;46.65;101220.09;5088501;28;967;-47
2023/11/10 09:13:07;;;;;;;;;;;;;;;15.25;46.26;101233.53;5083132;28;1995;-47
2023/11/10 09:15:33;;;;;;;;;;;;;;;15.10;45.77;101221.28;5096486;28;1050;-47
2023/11/10 09:17:59;;;;;;;;;;;;;;;15.09;45.79;101218.81;5097174;28;1078;-47
2023/11/10 09:20:25;;;;;;;;;;;;;;;15.02;45.42;101222.53;5085903;28;1146;-48
2023/11/10 09:22:50;;;;;;;;;;;;;;;15.04;45.34;101211.34;5085608;28;1055;-49
2023/11/10 09:25:20;;;;;;;;;;;;;;;15.09;45.14;101208.66;5086621;28;1137;-49
2023/11/10 09:27:45;;;;;;;;;;;;;;;15.05;44.82;101202.03;5088836;28;998;-47
2023/11/10 09:30:11;;;;;;;;;;;;;;;15.04;44.92;101203.94;5091091;28;1083;-47
2023/11/10 09:32:37;;;;;;;;;;;;;;;15.00;44.92;101189.09;5079100;28;1913;-49
2023/11/10 09:35:03;;;;;;;;;;;;;;;15.58;46.69;101188.72;5083088;28;2293;-45
2023/11/10 09:37:29;;;;;;;;;;;;;;;15.25;46.67;101174.09;5090930;28;1632;-48
2023/11/10 09:39:54;;;;;;;;;;;;;;;15.17;46.32;101172.63;5092024;28;814;-46
2023/11/10 09:42:22;;;;;;;;;;;;;;;15.15;45.77;101163.00;5089018;28;1144;-49
2023/11/10 09:44:53;;;;;;;;;;;;;;;14.98;45.90;101152.09;5091015;28;919;-46
2023/11/10 09:47:20;;;;;;;;;;;;;;;15.57;47.15;101157.75;5086047;28;1027;-48
2023/11/10 09:49:46;;;;;;;;;;;;;;;15.31;46.68;101162.09;5074143;28;1235;-45
2023/11/10 09:52:12;;;;;;;;;;;;;;;15.22;46.32;101147.19;5097849;28;1914;-48
2023/11/10 09:54:37;;;;;;;;;;;;;;;15.21;45.83;101143.63;5076274;28;1323;-47
2023/11/10 09:57:03;;;;;;;;;;;;;;;15.14;45.70;101131.22;5073697;28;1103;-44
2023/11/10 09:59:31;;;;;;;;;;;;;;;15.06;45.59;101135.22;5093521;28;1066;-46
2023/11/10 10:02:00;;;;;;;;;;;;;;;15.06;45.35;101133.31;5086081;28;1065;-47
2023/11/10 10:04:26;;;;;;;;;;;;;;;15.09;45.16;101125.69;5084695;28;1930;-48
2023/11/10 10:06:52;;;;;;;;;;;;;;;14.97;45.12;101129.38;5095989;28;1162;-47
2023/11/10 10:09:18;;;;;;;;;;;;;;;14.91;45.08;101124.88;5077706;28;1030;-48
2023/11/10 10:11:43;;;;;;;;;;;;;;;15.14;45.52;101131.22;5087656;28;1984;-51
2023/11/10 10:14:09;;;;;;;;;;;;;;;15.52;47.07;101118.50;5063952;28;1070;-47
2023/11/10 10:16:34;;;;;;;;;;;;;;;15.28;46.75;101112.47;5084148;28;1045;-49
2023/11/10 10:19:02;;;;;;;;;;;;;;;15.18;46.65;101108.53;5076313;28;1154;-46
2023/11/10 10:21:27;;;;;;;;;;;;;;;15.13;46.04;101104.91;5092886;28;1523;-49
2023/11/10 10:23:53;;;;;;;;;;;;;;;15.10;45.75;101108.16;5088137;28;1121;-47
2023/11/10 10:26:20;;;;;;;;;;;;;;;15.10;45.36;101110.91;5096264;28;1271;-45
2023/11/10 10:28:45;;;;;;;;;;;;;;;15.05;45.33;101104.28;5093371;28;1108;-42
2023/11/10 10:31:11;;;;;;;;;;;;;;;15.00;45.15;101101.47;5091199;28;1905;-46
2023/11/10 10:33:37;;;;;;;;;;;;;;;14.96;45.34;101094.84;5092818;28;2005;-44
2023/11/10 10:36:03;;;;;;;;;;;;;;;14.96;45.34;101094.84;5090455;28;1335;-48
2023/11/10 10:38:31;;;;;;;;;;;;;;;14.94;45.12;101099.75;5086378;28;1390;-46
2023/11/10 10:40:56;;;;;;;;;;;;;;;14.91;45.04;101091.22;5095183;28;1412;-48
2023/11/10 10:43:22;;;;;;;;;;;;;;;14.95;45.06;101089.63;5077596;28;1046;-45
2023/11/10 10:45:47;;;;;;;;;;;;;;;14.87;44.95;101074.47;5091027;28;1110;-43
2023/11/10 10:48:14;;;;;;;;;;;;;;;15.00;45.33;101085.03;5073887;28;1235;-41
2023/11/10 10:50:40;;;;;;;;;;;;;;;15.44;46.75;101083.34;5099102;28;1367;-43
2023/11/10 10:53:09;;;;;;;;;;;;;;;15.23;46.59;101080.38;5080870;28;1909;-44
2023/11/10 10:55:35;;;;;;;;;;;;;;;15.10;46.54;101078.03;5097402;28;1268;-46
2023/11/10 10:58:00;;;;;;;;;;;;;;;15.03;45.91;101078.22;5097688;28;1546;-46
2023/11/10 11:00:26;;;;;;;;;;;;;;;14.96;45.63;101075.69;5097777;28;1046;-42
2023/11/10 11:03:19;;;;;;;;;;;;;;;15.31;46.09;101068.13;5103371;28;1129;-46
2023/11/10 11:05:48;;;;;;;;;;;;;;;15.42;47.53;101061.66;5068739;28;1376;-45
2023/11/10 11:08:28;;;;;;;;;;;;;;;15.24;47.01;101054.63;5079984;28;1317;-45
2023/11/10 11:11:12;;;;;;;;;;;;;;;15.16;46.55;101060.56;5076157;28;1201;-41
2023/11/10 11:13:50;;;;;;;;;;;;;;;15.13;46.01;101050.13;5090373;28;1115;-44
2023/11/10 11:16:23;;;;;;;;;;;;;;;15.06;45.83;101045.66;5089542;28;1285;-43
2023/11/10 11:19:01;;;;;;;;;;;;;;;15.06;45.68;101051.13;5070810;28;1217;-43
2023/11/10 11:21:26;;;;;;;;;;;;;;;15.05;45.25;101044.03;5070729;28;1055;-46
2023/11/10 11:23:52;;;;;;;;;;;;;;;15.10;44.89;101053.38;5086605;28;1110;-48
2023/11/10 11:26:19;;;;;;;;;;;;;;;15.12;45.42;101054.75;5099356;28;1115;-46
2023/11/10 11:28:44;;;;;;;;;;;;;;;15.71;47.16;101051.25;5095299;28;1038;-45
2023/11/10 11:31:11;;;;;;;;;;;;;;;15.38;47.20;101055.06;5089210;28;1901;-49
2023/11/10 11:33:46;;;;;;;;;;;;;;;15.23;46.91;101050.22;5095113;28;2364;-43
2023/11/10 11:36:16;;;;;;;;;;;;;;;15.18;46.15;101042.78;5082599;28;917;-44
2023/11/10 11:38:42;;;;;;;;;;;;;;;15.08;46.12;101048.13;5095313;28;1213;-44
2023/11/10 11:41:07;;;;;;;;;;;;;;;15.08;45.60;101058.28;5094343;28;1309;-43
2023/11/10 11:43:33;;;;;;;;;;;;;;;15.09;45.34;101054.47;5082694;28;919;-43
2023/11/10 11:45:59;;;;;;;;;;;;;;;14.97;45.37;101049.09;5078463;28;1101;-46
2023/11/10 11:48:24;;;;;;;;;;;;;;;14.95;45.33;101040.34;5090510;28;843;-45
2023/11/10 11:50:52;;;;;;;;;;;;;;;14.94;44.96;101041.41;5098498;28;1019;-43
2023/11/10 11:53:26;;;;;;;;;;;;;;;15.13;45.27;101039.19;5098271;28;1981;-44
2023/11/10 11:55:52;;;;;;;;;;;;;;;15.68;47.44;101034.50;5085531;28;1086;-43
2023/11/10 11:58:21;;;;;;;;;;;;;;;15.33;47.29;101025.69;5084470;28;1124;-49
2023/11/10 12:00:46;;;;;;;;;;;;;;;15.25;46.57;101030.78;5079773;28;997;-48
2023/11/10 12:03:13;;;;;;;;;;;;;;;15.26;46.67;101013.28;5090079;28;2295;-44
2023/11/10 12:05:39;;;;;;;;;;;;;;;15.20;46.34;101006.94;5078377;28;1198;-43
2023/11/10 12:08:05;;;;;;;;;;;;;;;15.17;46.02;101018.41;5074101;28;1159;-42
2023/11/10 12:10:31;;;;;;;;;;;;;;;15.13;45.58;101006.31;5097130;28;1232;-44
2023/11/10 12:12:56;;;;;;;;;;;;;;;15.10;45.54;101001.34;5098593;28;1905;-44
2023/11/10 12:15:22;;;;;;;;;;;;;;;15.01;45.29;100990.84;5086335;28;1097;-45
2023/11/10 12:17:50;;;;;;;;;;;;;;;15.10;45.25;100993.13;5091707;28;1110;-47
2023/11/10 12:20:17;;;;;;;;;;;;;;;15.05;45.03;100993.88;5078234;28;1073;-43
2023/11/10 12:22:55;;;;;;;;;;;;;;;14.97;45.32;100983.38;5083131;28;1067;-47
2023/11/10 12:25:21;;;;;;;;;;;;;;;14.95;44.94;100978.19;5091470;28;1189;-48
2023/11/10 12:27:46;;;;;;;;;;;;;;;14.95;45.01;100975.44;5077914;28;1079;-48
2023/11/10 12:30:12;;;;;;;;;;;;;;;14.97;45.04;100978.75;5090032;28;1126;-48
2023/11/10 12:32:41;;;;;;;;;;;;;;;15.28;45.92;100976.31;5079031;28;1977;-49
2023/11/10 12:35:08;;;;;;;;;;;;;;;15.50;47.37;100964.44;5089582;28;2541;-42
2023/11/10 12:37:34;;;;;;;;;;;;;;;15.21;46.95;100943.66;5097350;28;1018;-45
2023/11/10 12:40:00;;;;;;;;;;;;;;;15.10;46.74;100952.06;5087829;28;1142;-39
2023/11/10 12:42:25;;;;;;;;;;;;;;;15.12;46.02;100949.88;5080660;28;1178;-44
2023/11/10 12:44:55;;;;;;;;;;;;;;;15.05;45.75;100948.19;5062106;28;903;-46